sensor_id;sensor_type;location;lat;lon;timestamp;P1;durP1;ratioP1;P2;durP2;ratioP2
57023;SDS011;42916;54.346;18.562;2024-02-23T00:01:00;22.40;;;12.30;;
57023;SDS011;42916;54.346;18.562;2024-02-23T00:03:46;18.10;;;12.10;;
57023;SDS011;42916;54.346;18.562;2024-02-23T00:06:13;20.40;;;13.10;;
57023;SDS011;42916;54.346;18.562;2024-02-23T00:08:41;18.30;;;12.10;;
57023;SDS011;42916;54.346;18.562;2024-02-23T00:11:08;18.60;;;11.90;;
57023;SDS011;42916;54.346;18.562;2024-02-23T00:13:35;19.80;;;12.70;;
57023;SDS011;42916;54.346;18.562;2024-02-23T00:16:02;20.60;;;12.80;;
57023;SDS011;42916;54.346;18.562;2024-02-23T00:18:29;18.10;;;11.80;;
57023;SDS011;42916;54.346;18.562;2024-02-23T00:20:56;20.10;;;12.30;;
57023;SDS011;42916;54.346;18.562;2024-02-23T00:23:22;19.90;;;11.80;;
57023;SDS011;42916;54.346;18.562;2024-02-23T00:25:49;16.80;;;11.30;;
57023;SDS011;42916;54.346;18.562;2024-02-23T00:28:16;20.30;;;12.20;;
57023;SDS011;42916;54.346;18.562;2024-02-23T00:30:43;18.20;;;11.80;;
57023;SDS011;42916;54.346;18.562;2024-02-23T00:33:10;19.80;;;12.10;;
57023;SDS011;42916;54.346;18.562;2024-02-23T00:35:36;20.60;;;12.30;;
57023;SDS011;42916;54.346;18.562;2024-02-23T00:38:03;21.10;;;12.50;;
57023;SDS011;42916;54.346;18.562;2024-02-23T00:40:30;20.10;;;12.70;;
57023;SDS011;42916;54.346;18.562;2024-02-23T00:42:57;18.10;;;11.40;;
57023;SDS011;42916;54.346;18.562;2024-02-23T00:45:23;18.60;;;11.20;;
57023;SDS011;42916;54.346;18.562;2024-02-23T00:47:50;18.90;;;12.00;;
57023;SDS011;42916;54.346;18.562;2024-02-23T00:50:17;17.80;;;11.60;;
57023;SDS011;42916;54.346;18.562;2024-02-23T00:52:44;19.40;;;12.00;;
57023;SDS011;42916;54.346;18.562;2024-02-23T00:55:11;18.60;;;12.00;;
57023;SDS011;42916;54.346;18.562;2024-02-23T00:57:38;19.20;;;11.80;;
57023;SDS011;42916;54.346;18.562;2024-02-23T01:00:05;16.10;;;10.70;;
57023;SDS011;42916;54.346;18.562;2024-02-23T01:02:32;20.80;;;12.20;;
57023;SDS011;42916;54.346;18.562;2024-02-23T01:04:59;18.00;;;11.00;;
57023;SDS011;42916;54.346;18.562;2024-02-23T01:07:26;17.20;;;11.40;;
57023;SDS011;42916;54.346;18.562;2024-02-23T01:09:53;15.90;;;10.80;;
57023;SDS011;42916;54.346;18.562;2024-02-23T01:12:19;18.70;;;11.70;;
57023;SDS011;42916;54.346;18.562;2024-02-23T01:14:46;18.20;;;11.70;;
57023;SDS011;42916;54.346;18.562;2024-02-23T01:17:14;20.20;;;11.20;;
57023;SDS011;42916;54.346;18.562;2024-02-23T01:19:42;18.90;;;12.10;;
57023;SDS011;42916;54.346;18.562;2024-02-23T01:22:11;16.10;;;11.50;;
57023;SDS011;42916;54.346;18.562;2024-02-23T01:24:37;22.30;;;12.00;;
57023;SDS011;42916;54.346;18.562;2024-02-23T01:27:04;22.10;;;12.80;;
57023;SDS011;42916;54.346;18.562;2024-02-23T01:29:31;16.80;;;11.40;;
57023;SDS011;42916;54.346;18.562;2024-02-23T01:31:59;21.00;;;12.40;;
57023;SDS011;42916;54.346;18.562;2024-02-23T01:34:26;19.00;;;11.30;;
57023;SDS011;42916;54.346;18.562;2024-02-23T01:36:53;17.10;;;11.30;;
57023;SDS011;42916;54.346;18.562;2024-02-23T01:39:20;17.00;;;11.00;;
57023;SDS011;42916;54.346;18.562;2024-02-23T01:41:47;19.50;;;11.00;;
57023;SDS011;42916;54.346;18.562;2024-02-23T01:44:13;21.00;;;11.60;;
57023;SDS011;42916;54.346;18.562;2024-02-23T01:46:41;18.10;;;10.70;;
57023;SDS011;42916;54.346;18.562;2024-02-23T01:49:08;18.50;;;11.80;;
57023;SDS011;42916;54.346;18.562;2024-02-23T01:51:36;20.90;;;12.60;;
57023;SDS011;42916;54.346;18.562;2024-02-23T01:54:03;21.10;;;12.30;;
57023;SDS011;42916;54.346;18.562;2024-02-23T01:56:30;18.60;;;11.30;;
57023;SDS011;42916;54.346;18.562;2024-02-23T01:58:59;20.10;;;12.40;;
57023;SDS011;42916;54.346;18.562;2024-02-23T02:01:26;17.60;;;10.90;;
57023;SDS011;42916;54.346;18.562;2024-02-23T02:03:53;19.90;;;11.90;;
57023;SDS011;42916;54.346;18.562;2024-02-23T02:06:20;21.50;;;12.00;;
57023;SDS011;42916;54.346;18.562;2024-02-23T02:08:47;17.20;;;11.10;;
57023;SDS011;42916;54.346;18.562;2024-02-23T02:11:14;18.60;;;11.80;;
57023;SDS011;42916;54.346;18.562;2024-02-23T02:13:41;16.90;;;11.90;;
57023;SDS011;42916;54.346;18.562;2024-02-23T02:16:08;17.90;;;11.30;;
57023;SDS011;42916;54.346;18.562;2024-02-23T02:18:34;18.60;;;11.60;;
57023;SDS011;42916;54.346;18.562;2024-02-23T02:21:01;19.80;;;11.40;;
57023;SDS011;42916;54.346;18.562;2024-02-23T02:23:28;17.80;;;11.40;;
57023;SDS011;42916;54.346;18.562;2024-02-23T02:25:55;16.90;;;10.90;;
57023;SDS011;42916;54.346;18.562;2024-02-23T02:28:22;18.40;;;11.50;;
57023;SDS011;42916;54.346;18.562;2024-02-23T02:30:50;19.90;;;11.80;;
57023;SDS011;42916;54.346;18.562;2024-02-23T02:35:46;19.60;;;12.00;;
57023;SDS011;42916;54.346;18.562;2024-02-23T02:38:13;16.80;;;11.50;;
57023;SDS011;42916;54.346;18.562;2024-02-23T02:40:40;17.50;;;11.20;;
57023;SDS011;42916;54.346;18.562;2024-02-23T02:43:07;17.60;;;11.50;;
57023;SDS011;42916;54.346;18.562;2024-02-23T02:45:34;20.10;;;13.10;;
57023;SDS011;42916;54.346;18.562;2024-02-23T02:48:01;19.20;;;12.30;;
57023;SDS011;42916;54.346;18.562;2024-02-23T02:50:28;17.00;;;11.90;;
57023;SDS011;42916;54.346;18.562;2024-02-23T02:52:55;18.30;;;12.10;;
57023;SDS011;42916;54.346;18.562;2024-02-23T02:55:22;17.90;;;12.10;;
57023;SDS011;42916;54.346;18.562;2024-02-23T02:57:48;19.20;;;12.30;;
57023;SDS011;42916;54.346;18.562;2024-02-23T03:00:15;18.60;;;11.90;;
57023;SDS011;42916;54.346;18.562;2024-02-23T03:02:42;20.50;;;11.90;;
57023;SDS011;42916;54.346;18.562;2024-02-23T03:05:09;19.20;;;13.00;;
57023;SDS011;42916;54.346;18.562;2024-02-23T03:07:36;17.10;;;11.70;;
57023;SDS011;42916;54.346;18.562;2024-02-23T03:10:03;17.40;;;12.60;;
57023;SDS011;42916;54.346;18.562;2024-02-23T03:12:30;18.30;;;12.60;;
57023;SDS011;42916;54.346;18.562;2024-02-23T03:14:56;16.50;;;10.50;;
57023;SDS011;42916;54.346;18.562;2024-02-23T03:17:23;19.10;;;12.60;;
57023;SDS011;42916;54.346;18.562;2024-02-23T03:19:50;22.40;;;13.60;;
57023;SDS011;42916;54.346;18.562;2024-02-23T03:22:17;20.30;;;12.90;;
57023;SDS011;42916;54.346;18.562;2024-02-23T03:24:43;24.40;;;14.10;;
57023;SDS011;42916;54.346;18.562;2024-02-23T03:27:10;18.40;;;12.00;;
57023;SDS011;42916;54.346;18.562;2024-02-23T03:29:38;19.20;;;13.30;;
57023;SDS011;42916;54.346;18.562;2024-02-23T03:32:05;21.10;;;13.50;;
57023;SDS011;42916;54.346;18.562;2024-02-23T03:34:32;18.50;;;11.80;;
57023;SDS011;42916;54.346;18.562;2024-02-23T03:36:59;13.50;;;9.60;;
57023;SDS011;42916;54.346;18.562;2024-02-23T03:39:27;19.90;;;12.70;;
57023;SDS011;42916;54.346;18.562;2024-02-23T03:41:55;19.70;;;12.80;;
57023;SDS011;42916;54.346;18.562;2024-02-23T03:44:21;19.50;;;12.20;;
57023;SDS011;42916;54.346;18.562;2024-02-23T03:46:48;18.50;;;12.50;;
57023;SDS011;42916;54.346;18.562;2024-02-23T03:49:15;18.80;;;12.10;;
57023;SDS011;42916;54.346;18.562;2024-02-23T03:51:41;18.20;;;12.20;;
57023;SDS011;42916;54.346;18.562;2024-02-23T03:54:08;18.80;;;12.40;;
57023;SDS011;42916;54.346;18.562;2024-02-23T03:56:38;20.30;;;12.70;;
57023;SDS011;42916;54.346;18.562;2024-02-23T03:59:07;20.80;;;13.20;;
57023;SDS011;42916;54.346;18.562;2024-02-23T04:01:36;17.60;;;12.20;;
57023;SDS011;42916;54.346;18.562;2024-02-23T04:04:04;19.70;;;12.30;;
57023;SDS011;42916;54.346;18.562;2024-02-23T04:06:31;20.50;;;11.60;;
57023;SDS011;42916;54.346;18.562;2024-02-23T04:08:58;21.30;;;12.40;;
57023;SDS011;42916;54.346;18.562;2024-02-23T04:11:25;18.60;;;12.90;;
57023;SDS011;42916;54.346;18.562;2024-02-23T04:13:52;19.20;;;11.50;;
57023;SDS011;42916;54.346;18.562;2024-02-23T04:16:22;22.40;;;13.20;;
57023;SDS011;42916;54.346;18.562;2024-02-23T04:18:50;17.40;;;10.10;;
57023;SDS011;42916;54.346;18.562;2024-02-23T04:21:17;17.60;;;12.80;;
57023;SDS011;42916;54.346;18.562;2024-02-23T04:23:44;18.00;;;11.80;;
57023;SDS011;42916;54.346;18.562;2024-02-23T04:26:11;19.00;;;12.50;;
57023;SDS011;42916;54.346;18.562;2024-02-23T04:28:38;19.80;;;13.20;;
57023;SDS011;42916;54.346;18.562;2024-02-23T04:31:06;19.20;;;12.10;;
57023;SDS011;42916;54.346;18.562;2024-02-23T04:33:34;18.00;;;12.60;;
57023;SDS011;42916;54.346;18.562;2024-02-23T04:36:03;16.90;;;11.90;;
57023;SDS011;42916;54.346;18.562;2024-02-23T04:38:30;17.40;;;11.50;;
57023;SDS011;42916;54.346;18.562;2024-02-23T04:40:57;19.20;;;11.70;;
57023;SDS011;42916;54.346;18.562;2024-02-23T04:43:24;15.60;;;11.00;;
57023;SDS011;42916;54.346;18.562;2024-02-23T04:45:52;16.00;;;11.50;;
57023;SDS011;42916;54.346;18.562;2024-02-23T04:48:18;16.30;;;10.70;;
57023;SDS011;42916;54.346;18.562;2024-02-23T04:50:45;15.00;;;10.90;;
57023;SDS011;42916;54.346;18.562;2024-02-23T04:53:12;16.00;;;11.30;;
57023;SDS011;42916;54.346;18.562;2024-02-23T04:55:38;16.00;;;10.90;;
57023;SDS011;42916;54.346;18.562;2024-02-23T04:58:05;15.60;;;10.90;;
57023;SDS011;42916;54.346;18.562;2024-02-23T05:00:32;14.60;;;10.10;;
57023;SDS011;42916;54.346;18.562;2024-02-23T05:02:59;13.80;;;10.30;;
57023;SDS011;42916;54.346;18.562;2024-02-23T05:05:29;13.80;;;10.80;;
57023;SDS011;42916;54.346;18.562;2024-02-23T05:07:57;13.90;;;10.10;;
57023;SDS011;42916;54.346;18.562;2024-02-23T05:10:24;14.30;;;10.50;;
57023;SDS011;42916;54.346;18.562;2024-02-23T05:12:50;14.60;;;10.60;;
57023;SDS011;42916;54.346;18.562;2024-02-23T05:15:17;13.00;;;10.40;;
57023;SDS011;42916;54.346;18.562;2024-02-23T05:17:44;13.60;;;9.90;;
57023;SDS011;42916;54.346;18.562;2024-02-23T05:20:11;15.60;;;10.30;;
57023;SDS011;42916;54.346;18.562;2024-02-23T05:22:41;13.60;;;10.30;;
57023;SDS011;42916;54.346;18.562;2024-02-23T05:25:08;16.30;;;11.10;;
57023;SDS011;42916;54.346;18.562;2024-02-23T05:27:35;14.10;;;10.10;;
57023;SDS011;42916;54.346;18.562;2024-02-23T05:30:02;13.50;;;9.60;;
57023;SDS011;42916;54.346;18.562;2024-02-23T05:32:29;13.90;;;9.50;;
57023;SDS011;42916;54.346;18.562;2024-02-23T05:34:56;12.50;;;9.30;;
57023;SDS011;42916;54.346;18.562;2024-02-23T05:37:23;12.30;;;9.10;;
57023;SDS011;42916;54.346;18.562;2024-02-23T05:39:50;13.10;;;9.50;;
57023;SDS011;42916;54.346;18.562;2024-02-23T05:42:17;13.40;;;9.70;;
57023;SDS011;42916;54.346;18.562;2024-02-23T05:44:43;12.00;;;8.70;;
57023;SDS011;42916;54.346;18.562;2024-02-23T05:47:11;12.10;;;9.10;;
57023;SDS011;42916;54.346;18.562;2024-02-23T05:49:40;12.70;;;8.90;;
57023;SDS011;42916;54.346;18.562;2024-02-23T05:52:07;13.30;;;9.00;;
57023;SDS011;42916;54.346;18.562;2024-02-23T05:54:33;13.70;;;8.80;;
57023;SDS011;42916;54.346;18.562;2024-02-23T05:57:00;13.20;;;8.70;;
57023;SDS011;42916;54.346;18.562;2024-02-23T05:59:27;13.90;;;8.40;;
57023;SDS011;42916;54.346;18.562;2024-02-23T06:01:54;8.30;;;7.10;;
57023;SDS011;42916;54.346;18.562;2024-02-23T06:04:23;12.40;;;7.50;;
57023;SDS011;42916;54.346;18.562;2024-02-23T06:06:50;11.60;;;7.40;;
57023;SDS011;42916;54.346;18.562;2024-02-23T06:09:17;10.50;;;7.70;;
57023;SDS011;42916;54.346;18.562;2024-02-23T06:11:43;8.90;;;7.00;;
57023;SDS011;42916;54.346;18.562;2024-02-23T06:14:10;10.30;;;6.90;;
57023;SDS011;42916;54.346;18.562;2024-02-23T06:16:37;12.40;;;7.30;;
57023;SDS011;42916;54.346;18.562;2024-02-23T06:19:04;10.80;;;6.90;;
57023;SDS011;42916;54.346;18.562;2024-02-23T06:21:31;8.70;;;6.20;;
57023;SDS011;42916;54.346;18.562;2024-02-23T06:23:58;8.80;;;6.90;;
57023;SDS011;42916;54.346;18.562;2024-02-23T06:26:25;7.80;;;6.20;;
57023;SDS011;42916;54.346;18.562;2024-02-23T06:28:52;7.40;;;5.70;;
57023;SDS011;42916;54.346;18.562;2024-02-23T06:31:19;9.10;;;6.50;;
57023;SDS011;42916;54.346;18.562;2024-02-23T06:33:45;9.20;;;6.50;;
57023;SDS011;42916;54.346;18.562;2024-02-23T06:36:15;8.30;;;6.30;;
57023;SDS011;42916;54.346;18.562;2024-02-23T06:38:42;7.30;;;5.40;;
57023;SDS011;42916;54.346;18.562;2024-02-23T06:41:09;8.90;;;6.50;;
57023;SDS011;42916;54.346;18.562;2024-02-23T06:43:37;6.90;;;5.70;;
57023;SDS011;42916;54.346;18.562;2024-02-23T06:46:07;7.30;;;5.90;;
57023;SDS011;42916;54.346;18.562;2024-02-23T06:48:35;7.00;;;5.00;;
57023;SDS011;42916;54.346;18.562;2024-02-23T06:51:03;7.70;;;5.40;;
57023;SDS011;42916;54.346;18.562;2024-02-23T06:53:31;7.10;;;5.30;;
57023;SDS011;42916;54.346;18.562;2024-02-23T06:55:58;7.90;;;4.70;;
57023;SDS011;42916;54.346;18.562;2024-02-23T06:58:25;8.00;;;4.80;;
57023;SDS011;42916;54.346;18.562;2024-02-23T07:00:52;6.00;;;4.10;;
57023;SDS011;42916;54.346;18.562;2024-02-23T07:03:19;6.30;;;4.40;;
57023;SDS011;42916;54.346;18.562;2024-02-23T07:05:46;8.20;;;4.70;;
57023;SDS011;42916;54.346;18.562;2024-02-23T07:08:14;5.20;;;3.80;;
57023;SDS011;42916;54.346;18.562;2024-02-23T07:10:41;6.30;;;3.70;;
57023;SDS011;42916;54.346;18.562;2024-02-23T07:13:08;6.40;;;3.60;;
57023;SDS011;42916;54.346;18.562;2024-02-23T07:15:35;5.10;;;3.40;;
57023;SDS011;42916;54.346;18.562;2024-02-23T07:18:05;5.50;;;3.70;;
57023;SDS011;42916;54.346;18.562;2024-02-23T07:20:32;4.00;;;2.90;;
57023;SDS011;42916;54.346;18.562;2024-02-23T07:22:58;3.70;;;3.10;;
57023;SDS011;42916;54.346;18.562;2024-02-23T07:25:25;5.60;;;3.20;;
57023;SDS011;42916;54.346;18.562;2024-02-23T07:27:52;4.10;;;3.00;;
57023;SDS011;42916;54.346;18.562;2024-02-23T07:30:19;3.30;;;2.40;;
57023;SDS011;42916;54.346;18.562;2024-02-23T07:32:46;3.70;;;2.70;;
57023;SDS011;42916;54.346;18.562;2024-02-23T07:35:13;3.40;;;2.50;;
57023;SDS011;42916;54.346;18.562;2024-02-23T07:37:40;3.50;;;2.60;;
57023;SDS011;42916;54.346;18.562;2024-02-23T07:40:07;3.60;;;2.70;;
57023;SDS011;42916;54.346;18.562;2024-02-23T07:42:34;4.70;;;2.50;;
57023;SDS011;42916;54.346;18.562;2024-02-23T07:45:04;4.50;;;2.20;;
57023;SDS011;42916;54.346;18.562;2024-02-23T07:47:32;4.60;;;2.80;;
57023;SDS011;42916;54.346;18.562;2024-02-23T07:49:59;3.60;;;2.20;;
57023;SDS011;42916;54.346;18.562;2024-02-23T07:52:26;4.30;;;2.50;;
57023;SDS011;42916;54.346;18.562;2024-02-23T07:54:53;3.60;;;2.20;;
57023;SDS011;42916;54.346;18.562;2024-02-23T07:57:20;3.10;;;2.40;;
57023;SDS011;42916;54.346;18.562;2024-02-23T07:59:47;3.90;;;2.50;;
57023;SDS011;42916;54.346;18.562;2024-02-23T08:02:14;4.30;;;2.10;;
57023;SDS011;42916;54.346;18.562;2024-02-23T08:04:41;3.60;;;1.80;;
57023;SDS011;42916;54.346;18.562;2024-02-23T08:07:08;4.60;;;2.40;;
57023;SDS011;42916;54.346;18.562;2024-02-23T08:09:36;6.10;;;2.50;;
57023;SDS011;42916;54.346;18.562;2024-02-23T08:12:02;4.00;;;2.00;;
57023;SDS011;42916;54.346;18.562;2024-02-23T08:14:29;3.40;;;2.00;;
57023;SDS011;42916;54.346;18.562;2024-02-23T08:16:56;4.70;;;2.10;;
57023;SDS011;42916;54.346;18.562;2024-02-23T08:19:23;3.90;;;2.00;;
57023;SDS011;42916;54.346;18.562;2024-02-23T08:21:50;3.00;;;1.70;;
57023;SDS011;42916;54.346;18.562;2024-02-23T08:24:16;3.20;;;1.80;;
57023;SDS011;42916;54.346;18.562;2024-02-23T08:26:44;2.20;;;1.70;;
57023;SDS011;42916;54.346;18.562;2024-02-23T08:29:10;4.00;;;2.00;;
57023;SDS011;42916;54.346;18.562;2024-02-23T08:31:38;2.60;;;1.90;;
57023;SDS011;42916;54.346;18.562;2024-02-23T08:34:04;2.10;;;1.70;;
57023;SDS011;42916;54.346;18.562;2024-02-23T08:36:31;3.50;;;1.70;;
57023;SDS011;42916;54.346;18.562;2024-02-23T08:38:58;3.50;;;1.50;;
57023;SDS011;42916;54.346;18.562;2024-02-23T08:41:24;3.20;;;1.60;;
57023;SDS011;42916;54.346;18.562;2024-02-23T08:43:51;2.70;;;1.70;;
57023;SDS011;42916;54.346;18.562;2024-02-23T08:46:18;2.90;;;1.40;;
57023;SDS011;42916;54.346;18.562;2024-02-23T08:48:46;2.20;;;1.20;;
57023;SDS011;42916;54.346;18.562;2024-02-23T08:51:13;4.20;;;2.10;;
57023;SDS011;42916;54.346;18.562;2024-02-23T08:53:40;7.20;;;3.00;;
57023;SDS011;42916;54.346;18.562;2024-02-23T08:56:07;3.60;;;1.40;;
57023;SDS011;42916;54.346;18.562;2024-02-23T08:58:34;2.40;;;1.10;;
57023;SDS011;42916;54.346;18.562;2024-02-23T09:01:01;3.40;;;1.50;;
57023;SDS011;42916;54.346;18.562;2024-02-23T09:05:58;2.90;;;1.30;;
57023;SDS011;42916;54.346;18.562;2024-02-23T09:08:24;3.70;;;1.20;;
57023;SDS011;42916;54.346;18.562;2024-02-23T09:10:51;3.80;;;2.10;;
57023;SDS011;42916;54.346;18.562;2024-02-23T09:13:18;5.80;;;2.40;;
57023;SDS011;42916;54.346;18.562;2024-02-23T09:15:44;6.70;;;2.40;;
57023;SDS011;42916;54.346;18.562;2024-02-23T09:18:11;4.20;;;2.00;;
57023;SDS011;42916;54.346;18.562;2024-02-23T09:20:38;3.60;;;2.10;;
57023;SDS011;42916;54.346;18.562;2024-02-23T09:23:05;3.90;;;2.30;;
57023;SDS011;42916;54.346;18.562;2024-02-23T09:25:31;4.50;;;2.10;;
57023;SDS011;42916;54.346;18.562;2024-02-23T09:27:58;4.70;;;2.10;;
57023;SDS011;42916;54.346;18.562;2024-02-23T09:30:25;4.40;;;1.60;;
57023;SDS011;42916;54.346;18.562;2024-02-23T09:32:51;2.80;;;1.30;;
57023;SDS011;42916;54.346;18.562;2024-02-23T09:35:18;1.60;;;1.20;;
57023;SDS011;42916;54.346;18.562;2024-02-23T09:37:45;3.50;;;1.30;;
57023;SDS011;42916;54.346;18.562;2024-02-23T09:40:12;4.20;;;1.50;;
57023;SDS011;42916;54.346;18.562;2024-02-23T09:42:39;4.90;;;1.60;;
57023;SDS011;42916;54.346;18.562;2024-02-23T09:45:06;3.00;;;1.30;;
57023;SDS011;42916;54.346;18.562;2024-02-23T09:47:35;2.00;;;1.50;;
57023;SDS011;42916;54.346;18.562;2024-02-23T09:50:05;4.50;;;1.30;;
57023;SDS011;42916;54.346;18.562;2024-02-23T09:52:33;2.40;;;1.30;;
57023;SDS011;42916;54.346;18.562;2024-02-23T09:55:00;4.20;;;1.30;;
57023;SDS011;42916;54.346;18.562;2024-02-23T09:57:27;2.30;;;1.10;;
57023;SDS011;42916;54.346;18.562;2024-02-23T09:59:54;2.80;;;0.90;;
57023;SDS011;42916;54.346;18.562;2024-02-23T10:02:21;3.60;;;1.00;;
57023;SDS011;42916;54.346;18.562;2024-02-23T10:04:47;4.60;;;1.50;;
57023;SDS011;42916;54.346;18.562;2024-02-23T10:07:16;2.90;;;0.90;;
57023;SDS011;42916;54.346;18.562;2024-02-23T10:09:43;2.30;;;0.80;;
57023;SDS011;42916;54.346;18.562;2024-02-23T10:12:10;2.40;;;1.00;;
57023;SDS011;42916;54.346;18.562;2024-02-23T10:14:36;2.70;;;1.30;;
57023;SDS011;42916;54.346;18.562;2024-02-23T10:17:03;6.60;;;2.40;;
57023;SDS011;42916;54.346;18.562;2024-02-23T10:22:00;3.70;;;1.40;;
57023;SDS011;42916;54.346;18.562;2024-02-23T10:24:26;2.00;;;1.00;;
57023;SDS011;42916;54.346;18.562;2024-02-23T10:26:53;4.20;;;1.20;;
57023;SDS011;42916;54.346;18.562;2024-02-23T10:29:20;2.10;;;1.10;;
57023;SDS011;42916;54.346;18.562;2024-02-23T10:31:47;2.50;;;1.00;;
57023;SDS011;42916;54.346;18.562;2024-02-23T10:34:17;3.00;;;1.10;;
57023;SDS011;42916;54.346;18.562;2024-02-23T10:36:46;2.50;;;1.30;;
57023;SDS011;42916;54.346;18.562;2024-02-23T10:39:17;2.70;;;1.20;;
57023;SDS011;42916;54.346;18.562;2024-02-23T10:41:56;3.80;;;1.50;;
57023;SDS011;42916;54.346;18.562;2024-02-23T10:44:26;3.10;;;1.20;;
57023;SDS011;42916;54.346;18.562;2024-02-23T10:46:55;1.70;;;0.90;;
57023;SDS011;42916;54.346;18.562;2024-02-23T10:49:23;7.10;;;1.30;;
57023;SDS011;42916;54.346;18.562;2024-02-23T10:51:54;3.10;;;1.50;;
57023;SDS011;42916;54.346;18.562;2024-02-23T10:54:21;3.90;;;1.30;;
57023;SDS011;42916;54.346;18.562;2024-02-23T10:56:49;3.20;;;1.20;;
57023;SDS011;42916;54.346;18.562;2024-02-23T10:59:17;3.20;;;1.30;;
57023;SDS011;42916;54.346;18.562;2024-02-23T11:01:49;2.00;;;0.80;;
57023;SDS011;42916;54.346;18.562;2024-02-23T11:04:19;1.90;;;0.70;;
57023;SDS011;42916;54.346;18.562;2024-02-23T11:06:54;1.10;;;0.70;;
57023;SDS011;42916;54.346;18.562;2024-02-23T11:09:23;4.70;;;1.00;;
57023;SDS011;42916;54.346;18.562;2024-02-23T11:11:54;5.00;;;1.20;;
57023;SDS011;42916;54.346;18.562;2024-02-23T11:14:32;2.60;;;0.90;;
57023;SDS011;42916;54.346;18.562;2024-02-23T11:17:01;2.50;;;1.00;;
57023;SDS011;42916;54.346;18.562;2024-02-23T11:19:38;1.80;;;0.70;;
57023;SDS011;42916;54.346;18.562;2024-02-23T11:22:09;2.50;;;0.90;;
57023;SDS011;42916;54.346;18.562;2024-02-23T11:24:41;2.40;;;1.10;;
57023;SDS011;42916;54.346;18.562;2024-02-23T11:27:14;1.50;;;0.70;;
57023;SDS011;42916;54.346;18.562;2024-02-23T11:29:46;2.20;;;0.80;;
57023;SDS011;42916;54.346;18.562;2024-02-23T11:32:17;1.40;;;0.50;;
57023;SDS011;42916;54.346;18.562;2024-02-23T11:34:56;1.30;;;0.60;;
57023;SDS011;42916;54.346;18.562;2024-02-23T11:37:23;2.40;;;1.10;;
57023;SDS011;42916;54.346;18.562;2024-02-23T11:39:50;2.70;;;1.20;;
57023;SDS011;42916;54.346;18.562;2024-02-23T11:42:16;1.50;;;0.80;;
57023;SDS011;42916;54.346;18.562;2024-02-23T11:44:44;1.30;;;0.80;;
57023;SDS011;42916;54.346;18.562;2024-02-23T11:47:11;2.30;;;0.90;;
57023;SDS011;42916;54.346;18.562;2024-02-23T11:49:37;1.10;;;0.80;;
57023;SDS011;42916;54.346;18.562;2024-02-23T11:52:04;1.70;;;1.00;;
57023;SDS011;42916;54.346;18.562;2024-02-23T11:54:31;3.30;;;1.00;;
57023;SDS011;42916;54.346;18.562;2024-02-23T11:56:58;2.90;;;1.40;;
57023;SDS011;42916;54.346;18.562;2024-02-23T11:59:26;3.00;;;1.20;;
57023;SDS011;42916;54.346;18.562;2024-02-23T12:01:53;2.70;;;1.00;;
57023;SDS011;42916;54.346;18.562;2024-02-23T12:04:20;3.00;;;1.10;;
57023;SDS011;42916;54.346;18.562;2024-02-23T12:06:46;1.50;;;1.00;;
57023;SDS011;42916;54.346;18.562;2024-02-23T12:09:13;2.40;;;1.30;;
57023;SDS011;42916;54.346;18.562;2024-02-23T12:11:41;4.10;;;1.50;;
57023;SDS011;42916;54.346;18.562;2024-02-23T12:14:08;3.80;;;1.70;;
57023;SDS011;42916;54.346;18.562;2024-02-23T12:16:35;3.50;;;1.40;;
57023;SDS011;42916;54.346;18.562;2024-02-23T12:19:02;3.70;;;1.50;;
57023;SDS011;42916;54.346;18.562;2024-02-23T12:21:30;5.80;;;1.80;;
57023;SDS011;42916;54.346;18.562;2024-02-23T12:23:56;3.20;;;1.20;;
57023;SDS011;42916;54.346;18.562;2024-02-23T12:26:23;3.00;;;1.40;;
57023;SDS011;42916;54.346;18.562;2024-02-23T12:28:50;2.60;;;1.40;;
57023;SDS011;42916;54.346;18.562;2024-02-23T12:31:16;1.90;;;0.80;;
57023;SDS011;42916;54.346;18.562;2024-02-23T12:33:51;1.40;;;0.80;;
57023;SDS011;42916;54.346;18.562;2024-02-23T12:36:17;2.20;;;1.00;;
57023;SDS011;42916;54.346;18.562;2024-02-23T12:38:44;1.70;;;1.00;;
57023;SDS011;42916;54.346;18.562;2024-02-23T12:41:11;1.70;;;1.00;;
57023;SDS011;42916;54.346;18.562;2024-02-23T12:43:38;1.40;;;1.00;;
57023;SDS011;42916;54.346;18.562;2024-02-23T12:46:05;4.50;;;1.30;;
57023;SDS011;42916;54.346;18.562;2024-02-23T12:48:33;5.10;;;1.80;;
57023;SDS011;42916;54.346;18.562;2024-02-23T12:50:59;3.00;;;1.30;;
57023;SDS011;42916;54.346;18.562;2024-02-23T12:53:36;2.20;;;1.00;;
57023;SDS011;42916;54.346;18.562;2024-02-23T12:56:05;1.90;;;1.10;;
57023;SDS011;42916;54.346;18.562;2024-02-23T12:58:36;2.30;;;1.20;;
57023;SDS011;42916;54.346;18.562;2024-02-23T13:01:04;2.20;;;1.10;;
57023;SDS011;42916;54.346;18.562;2024-02-23T13:03:36;1.80;;;0.70;;
57023;SDS011;42916;54.346;18.562;2024-02-23T13:06:04;1.50;;;0.90;;
57023;SDS011;42916;54.346;18.562;2024-02-23T13:08:31;1.50;;;0.90;;
57023;SDS011;42916;54.346;18.562;2024-02-23T13:10:58;2.10;;;1.00;;
57023;SDS011;42916;54.346;18.562;2024-02-23T13:13:24;2.80;;;1.10;;
57023;SDS011;42916;54.346;18.562;2024-02-23T13:15:52;3.10;;;1.20;;
57023;SDS011;42916;54.346;18.562;2024-02-23T13:18:19;1.30;;;0.90;;
57023;SDS011;42916;54.346;18.562;2024-02-23T13:20:46;1.60;;;1.00;;
57023;SDS011;42916;54.346;18.562;2024-02-23T13:23:13;1.00;;;0.80;;
57023;SDS011;42916;54.346;18.562;2024-02-23T13:25:42;3.00;;;1.00;;
57023;SDS011;42916;54.346;18.562;2024-02-23T13:28:10;1.10;;;0.80;;
57023;SDS011;42916;54.346;18.562;2024-02-23T13:30:37;2.10;;;0.90;;
57023;SDS011;42916;54.346;18.562;2024-02-23T13:33:04;2.10;;;1.00;;
57023;SDS011;42916;54.346;18.562;2024-02-23T13:35:33;2.10;;;1.10;;
57023;SDS011;42916;54.346;18.562;2024-02-23T13:38:00;1.60;;;0.90;;
57023;SDS011;42916;54.346;18.562;2024-02-23T13:40:31;1.80;;;1.10;;
57023;SDS011;42916;54.346;18.562;2024-02-23T13:42:58;3.30;;;1.40;;
57023;SDS011;42916;54.346;18.562;2024-02-23T13:45:24;2.20;;;1.30;;
57023;SDS011;42916;54.346;18.562;2024-02-23T13:48:02;2.80;;;1.80;;
57023;SDS011;42916;54.346;18.562;2024-02-23T13:50:32;3.50;;;2.20;;
57023;SDS011;42916;54.346;18.562;2024-02-23T13:52:59;9.30;;;3.10;;
57023;SDS011;42916;54.346;18.562;2024-02-23T13:55:26;3.80;;;2.50;;
57023;SDS011;42916;54.346;18.562;2024-02-23T13:57:52;4.40;;;1.80;;
57023;SDS011;42916;54.346;18.562;2024-02-23T14:00:19;3.50;;;1.90;;
57023;SDS011;42916;54.346;18.562;2024-02-23T14:02:46;4.60;;;1.00;;
57023;SDS011;42916;54.346;18.562;2024-02-23T14:05:14;3.90;;;1.30;;
57023;SDS011;42916;54.346;18.562;2024-02-23T14:07:42;3.60;;;1.30;;
57023;SDS011;42916;54.346;18.562;2024-02-23T14:10:09;1.80;;;1.10;;
57023;SDS011;42916;54.346;18.562;2024-02-23T14:12:41;3.00;;;1.60;;
57023;SDS011;42916;54.346;18.562;2024-02-23T14:15:08;6.40;;;1.70;;
57023;SDS011;42916;54.346;18.562;2024-02-23T14:17:36;3.80;;;1.60;;
57023;SDS011;42916;54.346;18.562;2024-02-23T14:20:03;2.00;;;1.40;;
57023;SDS011;42916;54.346;18.562;2024-02-23T14:22:30;2.70;;;1.50;;
57023;SDS011;42916;54.346;18.562;2024-02-23T14:24:58;3.80;;;1.60;;
57023;SDS011;42916;54.346;18.562;2024-02-23T14:27:25;4.70;;;1.70;;
57023;SDS011;42916;54.346;18.562;2024-02-23T14:29:53;2.30;;;1.30;;
57023;SDS011;42916;54.346;18.562;2024-02-23T14:32:20;3.50;;;1.40;;